Time;durP1;ratioP1;P1;durP2;ratioP2;P2;SDS_P1;SDS_P2;PMS_P1;PMS_P2;Temp;Humidity;BMP_temperature;BMP_pressure;BME280_temperature;BME280_humidity;BME280_pressure;Samples;Min_cycle;Max_cycle;Signal;HPM_P1;HPM_P2
2021/05/19 00:00:42;;;;;;;2.03;1.10;;;11.90;99.90;;;;;;5033467;28;20029;-65
2021/05/19 00:03:08;;;;;;;3.58;1.27;;;12.00;99.90;;;;;;5016002;28;20022;-64
2021/05/19 00:05:34;;;;;;;3.63;2.47;;;12.00;99.90;;;;;;5035685;28;20060;-63
2021/05/19 00:07:59;;;;;;;5.83;3.33;;;12.00;99.90;;;;;;5033755;28;20039;-64
2021/05/19 00:10:25;;;;;;;2.37;1.13;;;11.90;99.90;;;;;;5034025;28;20741;-64
2021/05/19 00:12:51;;;;;;;3.28;1.85;;;11.90;99.90;;;;;;5033581;28;20025;-64
2021/05/19 00:15:16;;;;;;;3.07;0.93;;;11.80;99.90;;;;;;5033276;28;20037;-63
2021/05/19 00:17:43;;;;;;;2.85;2.17;;;11.80;99.90;;;;;;5015587;28;20076;-64
2021/05/19 00:20:11;;;;;;;3.22;2.22;;;11.70;99.90;;;;;;5015436;28;20076;-62
2021/05/19 00:22:37;;;;;;;2.50;1.27;;;11.70;99.90;;;;;;5033094;28;20375;-64
2021/05/19 00:25:04;;;;;;;1.03;0.93;;;11.60;99.90;;;;;;5015562;28;20064;-64
2021/05/19 00:27:30;;;;;;;2.15;1.10;;;11.60;99.90;;;;;;5019499;28;20021;-64
2021/05/19 00:29:55;;;;;;;2.30;1.03;;;11.60;99.90;;;;;;5037421;28;20021;-64
2021/05/19 00:32:21;;;;;;;2.07;1.10;;;11.60;99.90;;;;;;5037033;28;20145;-63
2021/05/19 00:34:48;;;;;;;2.13;1.10;;;11.50;99.90;;;;;;5037261;28;20306;-64
2021/05/19 00:37:16;;;;;;;1.80;0.90;;;11.60;99.90;;;;;;5037094;28;20532;-63
2021/05/19 00:39:45;;;;;;;3.80;1.25;;;11.50;99.90;;;;;;5036957;28;20026;-65
2021/05/19 00:42:15;;;;;;;3.28;1.48;;;11.50;99.90;;;;;;5036841;28;20474;-64
2021/05/19 00:44:41;;;;;;;5.13;2.40;;;11.60;99.90;;;;;;5037019;28;20048;-64
2021/05/19 00:47:07;;;;;;;3.40;1.20;;;11.50;99.90;;;;;;5036931;28;20076;-64
2021/05/19 00:49:33;;;;;;;6.15;1.88;;;11.40;99.90;;;;;;5036950;28;20061;-61
2021/05/19 00:51:59;;;;;;;4.40;1.17;;;11.50;99.90;;;;;;5019004;28;20029;-64
2021/05/19 00:54:25;;;;;;;4.00;1.17;;;11.40;99.90;;;;;;5036909;28;20029;-65
2021/05/19 00:56:51;;;;;;;3.80;2.55;;;11.40;99.90;;;;;;5036539;28;20068;-65
2021/05/19 00:59:18;;;;;;;3.40;1.10;;;11.40;99.90;;;;;;5036398;28;20427;-64
2021/05/19 01:01:44;;;;;;;2.78;1.20;;;11.40;99.90;;;;;;5018567;28;20052;-65
2021/05/19 01:04:11;;;;;;;2.58;1.10;;;11.30;99.90;;;;;;5018583;28;20029;-64
2021/05/19 01:11:48;;;;;;;3.13;1.40;;;11.20;99.90;;;;;;5037263;28;20034;-64
2021/05/19 01:14:14;;;;;;;4.47;1.42;;;11.10;99.90;;;;;;5036185;28;20029;-65
2021/05/19 01:16:39;;;;;;;2.58;1.40;;;11.10;99.90;;;;;;5036046;28;20060;-65
2021/05/19 01:19:05;;;;;;;1.85;1.20;;;11.10;99.90;;;;;;5018286;28;20029;-65
2021/05/19 01:21:33;;;;;;;3.65;1.35;;;11.10;99.90;;;;;;5018240;28;20068;-65
2021/05/19 01:23:59;;;;;;;6.07;1.30;;;11.00;99.90;;;;;;5018197;28;20025;-65
2021/05/19 01:26:25;;;;;;;2.95;1.20;;;11.00;99.90;;;;;;5018013;28;20156;-65
2021/05/19 01:28:51;;;;;;;5.57;2.05;;;10.90;99.90;;;;;;5035932;28;20109;-65
2021/05/19 01:31:16;;;;;;;3.83;1.37;;;10.90;99.90;;;;;;5035988;28;20025;-65
2021/05/19 01:33:42;;;;;;;4.00;1.48;;;10.90;99.90;;;;;;5035930;28;20023;-65
2021/05/19 01:36:08;;;;;;;3.17;1.10;;;10.80;99.90;;;;;;5035546;28;20040;-65
2021/05/19 01:38:35;;;;;;;2.35;1.10;;;10.80;99.90;;;;;;5034539;28;20037;-65
2021/05/19 01:41:02;;;;;;;5.07;1.30;;;10.70;99.90;;;;;;5018377;28;20033;-65
2021/05/19 01:43:36;;;;;;;4.93;1.20;;;10.70;99.90;;;;;;5017795;28;20026;-65
2021/05/19 01:46:03;;;;;;;4.25;1.13;;;10.70;99.90;;;;;;5017586;28;20017;-65
2021/05/19 01:48:32;;;;;;;3.42;1.27;;;10.70;99.90;;;;;;5035691;28;20026;-64
2021/05/19 01:50:58;;;;;;;2.40;1.40;;;10.70;99.90;;;;;;5035433;28;20067;-65
2021/05/19 01:53:28;;;;;;;4.22;1.23;;;10.60;99.90;;;;;;5035956;28;20075;-65
2021/05/19 01:55:55;;;;;;;3.28;1.30;;;10.60;99.90;;;;;;5035203;28;20033;-65
2021/05/19 01:58:20;;;;;;;2.60;1.30;;;10.60;99.90;;;;;;5035058;28;20037;-64
2021/05/19 02:00:47;;;;;;;3.60;1.50;;;10.50;99.90;;;;;;5035338;28;20473;-63
2021/05/19 02:03:13;;;;;;;4.47;1.63;;;10.60;99.90;;;;;;5035487;28;20543;-64
2021/05/19 02:05:39;;;;;;;2.45;1.33;;;10.60;99.90;;;;;;5036006;28;20108;-65
2021/05/19 02:08:08;;;;;;;2.90;1.33;;;10.50;99.90;;;;;;5035202;28;20072;-63
2021/05/19 02:10:35;;;;;;;4.07;1.50;;;10.50;99.90;;;;;;5035517;28;20025;-64
2021/05/19 02:13:07;;;;;;;2.00;1.38;;;10.50;99.90;;;;;;5018027;28;20038;-64
2021/05/19 02:15:33;;;;;;;3.65;1.50;;;10.40;99.90;;;;;;5035631;28;20028;-64
2021/05/19 02:18:00;;;;;;;2.30;1.52;;;10.40;99.90;;;;;;5017989;28;20033;-65
2021/05/19 02:20:26;;;;;;;4.47;2.20;;;10.40;99.90;;;;;;5035201;28;20478;-64
2021/05/19 02:22:52;;;;;;;3.88;1.60;;;10.40;99.90;;;;;;5034908;28;20029;-63
2021/05/19 02:25:19;;;;;;;6.30;1.80;;;10.40;99.90;;;;;;5017103;28;20099;-65
2021/05/19 02:27:46;;;;;;;5.70;1.88;;;10.40;99.90;;;;;;5034644;28;20029;-64
2021/05/19 02:30:13;;;;;;;3.47;1.95;;;10.40;99.90;;;;;;5034736;28;20029;-64
2021/05/19 02:32:39;;;;;;;5.35;1.83;;;10.40;99.90;;;;;;5035012;28;20017;-64
2021/05/19 02:35:05;;;;;;;;;;;10.30;99.90;;;;;;5035394;28;20520;-64
2021/05/19 02:37:31;;;;;;;4.63;2.05;;;10.30;99.90;;;;;;5034494;28;19909;-64
2021/05/19 02:39:57;;;;;;;6.70;2.53;;;10.30;99.90;;;;;;5034941;28;20509;-64
2021/05/19 02:42:22;;;;;;;3.33;1.50;;;10.30;99.90;;;;;;5034624;28;20694;-64
2021/05/19 02:44:48;;;;;;;4.13;1.57;;;10.30;99.90;;;;;;5035304;28;20033;-64
2021/05/19 02:47:14;;;;;;;3.47;1.90;;;10.30;99.90;;;;;;5034633;28;20025;-64
2021/05/19 02:49:39;;;;;;;4.13;1.55;;;10.30;99.90;;;;;;5034744;28;20033;-62
2021/05/19 02:52:05;;;;;;;10.80;2.13;;;10.30;99.90;;;;;;5042799;28;20034;-64
2021/05/19 02:54:31;;;;;;;3.07;1.67;;;10.30;99.90;;;;;;5041320;28;20026;-64
2021/05/19 02:56:57;;;;;;;3.35;1.90;;;10.30;99.90;;;;;;5034866;28;20104;-64
2021/05/19 02:59:22;;;;;;;3.30;1.70;;;10.40;99.90;;;;;;5034215;28;20060;-63
2021/05/19 03:01:48;;;;;;;3.33;1.40;;;10.30;99.90;;;;;;5034546;28;20052;-63
2021/05/19 03:04:14;;;;;;;4.87;2.07;;;10.30;99.90;;;;;;5034380;28;20282;-64
2021/05/19 03:06:40;;;;;;;2.35;1.58;;;10.30;99.90;;;;;;5035491;28;20037;-63
2021/05/19 03:09:06;;;;;;;4.30;1.67;;;10.30;99.90;;;;;;5016542;28;20498;-63
2021/05/19 03:11:33;;;;;;;2.97;1.90;;;10.30;99.90;;;;;;5034297;28;20025;-63
2021/05/19 03:13:59;;;;;;;3.28;1.63;;;10.30;99.90;;;;;;5034906;28;20026;-63
2021/05/19 03:16:26;;;;;;;3.85;1.92;;;10.30;99.90;;;;;;5035029;28;20048;-64
2021/05/19 03:18:53;;;;;;;3.92;1.63;;;10.30;99.90;;;;;;5034787;28;20546;-63
2021/05/19 03:21:19;;;;;;;2.22;1.67;;;10.30;99.90;;;;;;5034081;28;20375;-63
2021/05/19 03:23:44;;;;;;;2.17;1.70;;;10.30;99.90;;;;;;5034589;28;20028;-63
2021/05/19 03:26:10;;;;;;;2.63;1.57;;;10.30;99.90;;;;;;5034059;28;20431;-63
2021/05/19 03:28:36;;;;;;;5.05;1.77;;;10.30;99.90;;;;;;5034466;28;20022;-65
2021/05/19 03:31:03;;;;;;;4.45;1.80;;;10.30;99.90;;;;;;5033843;28;20033;-63
2021/05/19 03:33:29;;;;;;;5.13;1.83;;;10.30;99.90;;;;;;5034791;28;20076;-63
2021/05/19 03:35:55;;;;;;;2.60;1.40;;;10.30;99.90;;;;;;5033689;28;20029;-64
2021/05/19 03:38:20;;;;;;;2.63;1.93;;;10.30;99.90;;;;;;5017051;28;20052;-63
2021/05/19 03:40:46;;;;;;;5.03;2.08;;;10.30;99.90;;;;;;5019208;28;20029;-64
2021/05/19 03:43:12;;;;;;;3.80;1.90;;;10.30;99.90;;;;;;5035132;28;20562;-64
2021/05/19 03:45:38;;;;;;;3.05;2.13;;;10.40;99.90;;;;;;5033672;28;20032;-64
2021/05/19 03:48:05;;;;;;;4.10;1.63;;;10.30;99.90;;;;;;5033441;28;20108;-64
2021/05/19 03:50:31;;;;;;;5.53;1.83;;;10.30;99.90;;;;;;5033472;28;20033;-64
2021/05/19 03:52:59;;;;;;;4.65;1.80;;;10.30;99.90;;;;;;5033359;28;20244;-64
2021/05/19 03:55:25;;;;;;;5.15;2.13;;;10.30;99.90;;;;;;5033801;28;20061;-65
2021/05/19 03:57:51;;;;;;;5.88;1.83;;;10.30;99.90;;;;;;5034138;28;20454;-64
2021/05/19 04:00:24;;;;;;;4.15;2.00;;;10.30;99.90;;;;;;5033226;28;20116;-65
2021/05/19 04:02:50;;;;;;;4.05;1.80;;;10.30;99.90;;;;;;5015861;28;20022;-64
2021/05/19 04:05:21;;;;;;;3.22;1.85;;;10.40;99.90;;;;;;5033531;28;20021;-65
2021/05/19 04:07:51;;;;;;;4.13;1.85;;;10.50;99.90;;;;;;5055976;22;20136;-65
2021/05/19 04:10:17;;;;;;;3.10;1.58;;;10.50;99.90;;;;;;5032897;28;20066;-64
2021/05/19 04:12:43;;;;;;;2.88;1.60;;;10.50;99.90;;;;;;5033268;28;20029;-65
2021/05/19 04:15:10;;;;;;;2.80;1.50;;;10.70;99.90;;;;;;5033693;28;20025;-65
2021/05/19 04:17:35;;;;;;;2.55;1.65;;;10.70;99.90;;;;;;5032901;28;20029;-64
2021/05/19 04:20:03;;;;;;;2.30;1.65;;;10.80;99.90;;;;;;5032810;28;20109;-64
2021/05/19 04:22:28;;;;;;;3.08;2.13;;;10.80;99.90;;;;;;5032795;28;20370;-65
2021/05/19 04:24:54;;;;;;;4.83;1.80;;;10.80;99.90;;;;;;5032759;28;20029;-64
2021/05/19 04:27:20;;;;;;;4.53;1.70;;;10.80;99.90;;;;;;5014946;28;20461;-65
2021/05/19 04:29:45;;;;;;;5.07;1.60;;;10.80;99.90;;;;;;5032544;28;20025;-65
2021/05/19 04:32:11;;;;;;;2.77;1.33;;;10.80;99.90;;;;;;5032572;28;20036;-66
2021/05/19 04:34:38;;;;;;;2.40;1.50;;;10.80;99.90;;;;;;5032453;28;20028;-66
2021/05/19 04:37:08;;;;;;;5.47;1.60;;;10.80;99.90;;;;;;5032472;28;20033;-65
2021/05/19 04:39:34;;;;;;;4.15;1.50;;;10.80;99.90;;;;;;5014518;28;20021;-65
2021/05/19 04:42:00;;;;;;;4.60;1.80;;;10.80;99.90;;;;;;5032453;28;20093;-65
2021/05/19 04:44:26;;;;;;;3.28;1.52;;;10.80;99.90;;;;;;5032632;28;20104;-65
2021/05/19 04:46:51;;;;;;;4.32;1.60;;;10.80;99.90;;;;;;5015717;28;20025;-65
2021/05/19 04:49:18;;;;;;;3.70;1.77;;;10.80;99.90;;;;;;5033215;28;20040;-65
2021/05/19 04:51:44;;;;;;;3.40;1.65;;;10.80;99.90;;;;;;5032408;28;20174;-65
2021/05/19 04:54:10;;;;;;;3.60;1.88;;;10.70;99.90;;;;;;5014766;28;20080;-65
2021/05/19 04:56:36;;;;;;;5.50;2.03;;;10.80;99.90;;;;;;5032176;28;20022;-66
2021/05/19 04:59:04;;;;;;;5.07;2.13;;;10.80;99.90;;;;;;5014499;28;20108;-65
2021/05/19 05:01:29;;;;;;;3.55;1.75;;;10.80;99.90;;;;;;5032236;28;20045;-65
2021/05/19 05:03:55;;;;;;;3.87;1.90;;;10.80;99.90;;;;;;5014621;28;20474;-59
2021/05/19 05:06:21;;;;;;;3.28;1.83;;;10.80;99.90;;;;;;5032392;28;20115;-62
2021/05/19 05:08:46;;;;;;;3.63;2.08;;;10.80;99.90;;;;;;5032043;28;20044;-62
2021/05/19 05:11:12;;;;;;;2.30;1.70;;;10.80;99.90;;;;;;5032341;28;20033;-62
2021/05/19 05:13:38;;;;;;;11.30;1.92;;;10.80;99.90;;;;;;5034877;28;20057;-62
2021/05/19 05:16:04;;;;;;;4.53;1.97;;;10.90;99.90;;;;;;5036076;28;20033;-64
2021/05/19 05:18:35;;;;;;;3.92;1.92;;;10.80;99.90;;;;;;5035492;28;20280;-62
2021/05/19 05:21:00;;;;;;;4.15;1.80;;;10.80;99.90;;;;;;5035834;28;20100;-62
2021/05/19 05:23:28;;;;;;;4.25;2.20;;;10.80;99.90;;;;;;5035582;28;20482;-62
2021/05/19 05:25:54;;;;;;;4.68;2.10;;;10.80;99.90;;;;;;5035482;28;20017;-63
2021/05/19 05:28:19;;;;;;;6.63;2.90;;;10.90;99.90;;;;;;5036180;28;20033;-63
2021/05/19 05:30:45;;;;;;;4.50;2.23;;;10.90;99.90;;;;;;5018091;28;20296;-62
2021/05/19 05:33:10;;;;;;;5.03;2.30;;;10.90;99.90;;;;;;5035663;28;20104;-64
2021/05/19 05:35:36;;;;;;;13.17;2.93;;;10.90;99.90;;;;;;5035605;28;20116;-61
2021/05/19 05:38:02;;;;;;;4.40;2.90;;;11.00;99.90;;;;;;5035302;28;20025;-68
2021/05/19 05:40:27;;;;;;;4.53;2.40;;;11.00;99.90;;;;;;5035568;28;20022;-67
2021/05/19 05:42:53;;;;;;;4.27;2.73;;;11.10;99.90;;;;;;5035885;28;20382;-66
2021/05/19 05:45:18;;;;;;;4.23;2.40;;;11.20;99.90;;;;;;5017978;28;20359;-66
2021/05/19 05:47:44;;;;;;;6.10;3.33;;;11.30;99.90;;;;;;5035267;28;20029;-68
2021/05/19 05:50:10;;;;;;;3.67;2.23;;;11.30;99.90;;;;;;5035158;28;20116;-65
2021/05/19 05:52:36;;;;;;;6.32;2.72;;;11.30;99.90;;;;;;5034935;28;20067;-65
2021/05/19 05:55:02;;;;;;;6.93;3.73;;;11.40;99.90;;;;;;5034814;28;20026;-63
2021/05/19 05:57:28;;;;;;;8.38;3.00;;;11.50;99.90;;;;;;5035115;28;20632;-64
2021/05/19 05:59:53;;;;;;;6.57;3.10;;;11.50;99.90;;;;;;5034877;28;20033;-67
2021/05/19 06:02:19;;;;;;;9.60;3.70;;;11.50;99.90;;;;;;5034849;28;20061;-67
2021/05/19 06:04:45;;;;;;;5.53;3.33;;;11.50;99.90;;;;;;5034829;28;20108;-68
2021/05/19 06:07:11;;;;;;;7.32;3.45;;;11.50;99.90;;;;;;5034575;28;20037;-67
2021/05/19 06:09:37;;;;;;;5.22;3.65;;;11.50;99.90;;;;;;5034412;28;20025;-67
2021/05/19 06:12:02;;;;;;;6.03;3.72;;;11.50;99.90;;;;;;5016921;28;20033;-68
2021/05/19 06:14:28;;;;;;;8.48;3.85;;;11.50;99.90;;;;;;5016778;28;20029;-64
2021/05/19 06:16:55;;;;;;;6.43;3.30;;;11.50;99.90;;;;;;5034376;28;20030;-63
2021/05/19 06:19:21;;;;;;;7.40;3.60;;;11.60;99.90;;;;;;5034426;28;20482;-62
2021/05/19 06:21:46;;;;;;;5.40;3.72;;;11.50;99.90;;;;;;5034534;28;20025;-67
2021/05/19 06:24:12;;;;;;;4.97;3.47;;;11.60;99.90;;;;;;5033872;28;20033;-66
2021/05/19 06:26:38;;;;;;;6.30;3.57;;;11.60;99.90;;;;;;5034430;28;20026;-67
2021/05/19 06:29:04;;;;;;;7.28;4.88;;;11.50;99.90;;;;;;5034241;28;20260;-67
2021/05/19 06:31:29;;;;;;;5.50;3.00;;;11.50;99.90;;;;;;5034529;28;20029;-68
2021/05/19 06:33:55;;;;;;;10.02;3.50;;;11.60;99.90;;;;;;5016406;28;20029;-66
2021/05/19 06:36:21;;;;;;;9.27;4.20;;;11.60;99.90;;;;;;5034835;28;20029;-66
2021/05/19 06:38:46;;;;;;;7.57;4.03;;;11.70;99.90;;;;;;5034211;28;20025;-68
2021/05/19 06:41:12;;;;;;;9.50;4.30;;;11.70;99.90;;;;;;5034526;28;20022;-66
2021/05/19 06:43:38;;;;;;;5.40;3.57;;;11.70;99.90;;;;;;5034995;28;20480;-72
2021/05/19 06:46:03;;;;;;;9.25;3.50;;;11.60;99.90;;;;;;5034887;28;20017;-67
2021/05/19 06:48:29;;;;;;;6.77;3.43;;;11.60;99.90;;;;;;5016755;28;20033;-68
2021/05/19 06:50:54;;;;;;;7.93;4.20;;;11.60;99.90;;;;;;5034465;28;20040;-69
2021/05/19 06:53:20;;;;;;;5.97;4.00;;;11.70;99.90;;;;;;5034436;28;20104;-67
2021/05/19 06:55:50;;;;;;;8.00;3.63;;;11.60;99.90;;;;;;5016433;28;20029;-67
2021/05/19 06:58:16;;;;;;;6.70;3.97;;;11.60;99.90;;;;;;5016051;28;20040;-68
2021/05/19 07:00:42;;;;;;;8.30;4.03;;;11.70;99.90;;;;;;5033910;28;20024;-67
2021/05/19 07:03:08;;;;;;;8.50;4.47;;;11.70;99.90;;;;;;5016060;28;20026;-69
2021/05/19 07:05:33;;;;;;;7.83;4.63;;;11.70;99.90;;;;;;5033795;28;20030;-69
2021/05/19 07:07:59;;;;;;;9.43;4.75;;;11.80;99.90;;;;;;5015650;28;20176;-67
2021/05/19 07:10:24;;;;;;;7.05;4.80;;;11.90;99.90;;;;;;5015661;28;20114;-66
2021/05/19 07:12:51;;;;;;;8.47;4.93;;;11.90;99.90;;;;;;5033688;28;20489;-66
2021/05/19 07:15:17;;;;;;;7.50;5.22;;;11.90;99.90;;;;;;5033467;28;20028;-66
2021/05/19 07:17:43;;;;;;;;;;;12.10;99.90;;;;;;5033404;28;20079;-66
2021/05/19 07:20:10;;;;;;;5.95;4.55;;;12.30;99.90;;;;;;5033384;28;19913;-67
2021/05/19 07:22:38;;;;;;;7.90;4.18;;;12.60;99.90;;;;;;5015519;28;20021;-67
2021/05/19 07:25:05;;;;;;;10.57;4.38;;;12.90;99.90;;;;;;5015541;28;20431;-65
2021/05/19 07:27:30;;;;;;;6.97;4.28;;;13.10;99.90;;;;;;5033073;28;20113;-66
2021/05/19 07:29:56;;;;;;;7.28;4.88;;;13.10;99.90;;;;;;5033237;28;20061;-68
2021/05/19 07:32:22;;;;;;;6.23;4.30;;;13.30;99.90;;;;;;5033067;28;20494;-67
2021/05/19 07:34:48;;;;;;;5.82;3.97;;;13.30;99.90;;;;;;5032546;28;20272;-66
2021/05/19 07:37:13;;;;;;;6.05;3.92;;;13.30;99.90;;;;;;5032884;28;20033;-66
2021/05/19 07:39:39;;;;;;;5.75;3.55;;;13.30;99.90;;;;;;5033064;28;20030;-66
2021/05/19 07:42:05;;;;;;;7.73;4.17;;;13.30;99.90;;;;;;5033283;28;20033;-65
2021/05/19 07:44:31;;;;;;;11.50;4.10;;;13.40;99.90;;;;;;5032924;28;20763;-66
2021/05/19 07:46:57;;;;;;;5.07;3.88;;;13.30;99.90;;;;;;5032849;28;20038;-64
2021/05/19 07:49:23;;;;;;;6.93;4.20;;;13.20;99.90;;;;;;5032525;28;20022;-63
2021/05/19 07:51:49;;;;;;;13.20;9.35;;;13.20;99.90;;;;;;5032929;28;20040;-67
2021/05/19 07:54:24;;;;;;;8.83;3.63;;;13.20;99.90;;;;;;5032724;28;20048;-65
2021/05/19 07:57:00;;;;;;;6.07;4.05;;;13.30;99.90;;;;;;5014518;28;20065;-65
2021/05/19 07:59:29;;;;;;;7.68;3.55;;;13.40;99.90;;;;;;5033428;28;20029;-65
2021/05/19 08:02:12;;;;;;;5.60;3.55;;;13.60;99.90;;;;;;5033061;28;20041;-66
2021/05/19 08:04:38;;;;;;;7.15;3.90;;;13.70;99.90;;;;;;5033394;28;20028;-67
2021/05/19 08:07:06;;;;;;;6.43;3.25;;;13.90;99.90;;;;;;5032800;28;20033;-67
2021/05/19 08:09:32;;;;;;;6.85;3.25;;;14.20;99.90;;;;;;5033206;28;20112;-67
2021/05/19 08:11:58;;;;;;;8.25;3.42;;;14.90;99.90;;;;;;5015265;28;20116;-67
2021/05/19 08:14:29;;;;;;;4.53;3.50;;;15.30;99.90;;;;;;5033155;28;20033;-68
2021/05/19 08:16:56;;;;;;;9.00;4.45;;;15.00;99.90;;;;;;5014935;28;20025;-65
2021/05/19 08:19:21;;;;;;;8.88;3.10;;;15.10;99.90;;;;;;5033026;28;20470;-66
2021/05/19 08:21:47;;;;;;;7.40;3.63;;;15.10;99.90;;;;;;5032631;28;20116;-61
2021/05/19 08:24:13;;;;;;;7.30;4.13;;;15.00;99.90;;;;;;5032657;28;20026;-64
2021/05/19 08:26:39;;;;;;;5.18;3.45;;;14.80;99.90;;;;;;5032627;28;20037;-61
2021/05/19 08:29:05;;;;;;;5.57;3.17;;;14.80;99.90;;;;;;5032478;28;20494;-66
2021/05/19 08:31:31;;;;;;;7.10;3.22;;;15.80;99.90;;;;;;5032427;28;20033;-66
2021/05/19 08:33:57;;;;;;;6.47;3.08;;;16.70;99.90;;;;;;5032551;28;20079;-65
2021/05/19 08:36:26;;;;;;;5.47;2.60;;;18.40;99.20;;;;;;5014716;28;20116;-66
2021/05/19 08:38:53;;;;;;;4.60;2.17;;;19.50;96.90;;;;;;5032581;28;20029;-66
2021/05/19 08:41:20;;;;;;;3.08;2.05;;;20.20;94.60;;;;;;5032792;28;20459;-65
2021/05/19 08:43:46;;;;;;;4.95;1.73;;;20.40;92.70;;;;;;5034092;28;20018;-66
2021/05/19 08:46:12;;;;;;;4.35;1.95;;;21.60;86.70;;;;;;5015576;28;20522;-66
2021/05/19 08:48:39;;;;;;;3.65;2.10;;;22.80;78.30;;;;;;5037003;28;20033;-67
2021/05/19 08:51:06;;;;;;;3.35;1.60;;;23.40;74.10;;;;;;5037050;28;20498;-67
2021/05/19 08:53:33;;;;;;;4.53;1.80;;;24.40;71.10;;;;;;5036777;28;20521;-63
2021/05/19 08:56:04;;;;;;;3.55;1.48;;;25.40;66.10;;;;;;5035920;28;20036;-66
2021/05/19 08:58:29;;;;;;;5.05;1.75;;;25.90;64.20;;;;;;5036224;28;20025;-66
2021/05/19 09:00:55;;;;;;;2.78;1.50;;;26.00;60.20;;;;;;5036218;28;20095;-68
2021/05/19 09:03:21;;;;;;;3.83;1.63;;;26.40;58.70;;;;;;5036023;28;20029;-66
2021/05/19 18:31:27;;;;;;;1.90;0.82;;;13.10;99.90;;;;;;5133505;27;20298;-65
2021/05/19 18:33:57;;;;;;;3.28;1.10;;;13.10;99.90;;;;;;5132827;28;20019;-65
2021/05/19 18:36:22;;;;;;;2.70;0.93;;;13.00;99.90;;;;;;5114673;28;20015;-66
2021/05/19 18:38:48;;;;;;;1.33;0.73;;;13.00;99.90;;;;;;5133491;28;20464;-67
2021/05/19 18:41:13;;;;;;;1.57;0.90;;;12.90;99.90;;;;;;5132398;27;20020;-65
2021/05/19 18:43:39;;;;;;;2.47;0.53;;;12.90;99.90;;;;;;5132491;27;20095;-67
2021/05/19 18:46:08;;;;;;;4.87;0.70;;;12.80;99.90;;;;;;5130880;28;20053;-65
2021/05/19 18:48:34;;;;;;;4.57;0.90;;;12.80;99.90;;;;;;5131662;27;20089;-67
2021/05/19 18:51:00;;;;;;;2.63;1.10;;;12.80;99.90;;;;;;5131585;27;20476;-66
2021/05/19 18:53:27;;;;;;;2.80;1.20;;;12.70;99.90;;;;;;5131308;27;20022;-67
2021/05/19 18:55:52;;;;;;;2.03;1.10;;;12.60;99.90;;;;;;5130982;27;20257;-67
2021/05/19 18:58:18;;;;;;;4.97;1.03;;;12.50;99.90;;;;;;5130992;27;20090;-66
2021/05/19 19:00:44;;;;;;;2.13;0.90;;;12.50;99.90;;;;;;5131429;27;20028;-67
2021/05/19 19:03:09;;;;;;;3.30;0.80;;;12.50;99.90;;;;;;5129890;28;20051;-67
2021/05/19 19:05:35;;;;;;;1.60;0.80;;;12.40;99.90;;;;;;5130981;27;20267;-67
2021/05/19 19:08:01;;;;;;;1.20;0.80;;;12.40;99.90;;;;;;5131159;27;20483;-67
2021/05/19 19:10:26;;;;;;;1.80;0.90;;;12.40;99.90;;;;;;5131202;27;20045;-65
2021/05/19 19:12:52;;;;;;;1.17;0.73;;;12.40;99.90;;;;;;5131255;27;20110;-66
2021/05/19 19:15:18;;;;;;;1.63;0.70;;;12.40;99.90;;;;;;5131107;27;20027;-66
2021/05/19 19:17:44;;;;;;;2.15;0.60;;;12.30;99.90;;;;;;5131602;27;20372;-66
2021/05/19 19:20:11;;;;;;;1.25;0.77;;;12.30;99.90;;;;;;5130851;27;20027;-66
2021/05/19 19:22:38;;;;;;;1.88;0.80;;;12.20;99.90;;;;;;5129529;28;20056;-67
2021/05/19 19:25:04;;;;;;;3.65;1.10;;;12.20;99.90;;;;;;5131011;27;20027;-66
2021/05/19 19:27:32;;;;;;;0.95;0.70;;;12.10;99.90;;;;;;5130628;27;20024;-67
2021/05/19 19:29:57;;;;;;;2.55;0.68;;;12.10;99.90;;;;;;5130406;27;20032;-68
2021/05/19 19:32:24;;;;;;;1.27;0.80;;;12.00;99.90;;;;;;5130319;27;20019;-67
2021/05/19 19:34:49;;;;;;;;;;;12.00;99.90;;;;;;5130824;27;20016;-65
2021/05/19 19:37:17;;;;;;;1.67;0.80;;;12.00;99.90;;;;;;5130732;28;19904;-67
2021/05/19 19:39:43;;;;;;;2.05;0.98;;;12.00;99.90;;;;;;5129070;28;20365;-66
2021/05/19 19:42:11;;;;;;;3.03;1.13;;;11.90;99.90;;;;;;5119320;27;20035;-66
2021/05/19 19:44:44;;;;;;;1.52;0.80;;;12.00;99.90;;;;;;5116775;28;20373;-66
2021/05/19 19:47:10;;;;;;;2.92;1.42;;;11.90;99.90;;;;;;5116635;28;20024;-67
2021/05/19 19:49:35;;;;;;;1.10;0.90;;;11.90;99.90;;;;;;5116575;28;20027;-66
2021/05/19 19:52:01;;;;;;;2.80;0.83;;;11.90;99.90;;;;;;5116292;28;20080;-67
2021/05/19 19:54:27;;;;;;;1.83;1.10;;;11.90;99.90;;;;;;5116520;28;20497;-65
2021/05/19 19:56:52;;;;;;;1.67;1.00;;;11.90;99.90;;;;;;5116408;28;20024;-66
2021/05/19 19:59:18;;;;;;;3.92;1.20;;;11.90;99.90;;;;;;5116325;28;20034;-66
2021/05/19 20:01:58;;;;;;;1.85;0.82;;;11.90;99.90;;;;;;5116110;28;20443;-67
2021/05/19 20:04:23;;;;;;;4.72;1.50;;;11.90;99.90;;;;;;5116113;28;20026;-65
2021/05/19 20:06:51;;;;;;;2.78;1.45;;;11.80;99.90;;;;;;5115669;28;20019;-66
2021/05/19 20:09:17;;;;;;;4.07;1.40;;;11.80;99.90;;;;;;5115790;28;20028;-66
2021/05/19 20:11:44;;;;;;;2.13;1.20;;;11.80;99.90;;;;;;5116956;28;20023;-66
2021/05/19 20:14:10;;;;;;;;;;;11.80;99.90;;;;;;5116566;28;20020;-65
2021/05/19 20:16:36;;;;;;;2.67;0.85;;;11.70;99.90;;;;;;5115607;28;19910;-67
2021/05/19 20:19:04;;;;;;;2.30;0.95;;;11.70;99.90;;;;;;5115736;27;20016;-66
2021/05/19 20:21:30;;;;;;;2.88;1.50;;;11.60;99.90;;;;;;5115841;28;20020;-66
2021/05/19 20:23:57;;;;;;;2.85;1.60;;;11.60;99.90;;;;;;5115561;28;20047;-67
2021/05/19 20:26:27;;;;;;;4.88;1.38;;;11.60;99.90;;;;;;5115349;28;20072;-65
2021/05/19 20:28:53;;;;;;;2.65;1.25;;;11.50;99.90;;;;;;5115660;28;20031;-65
2021/05/19 20:31:20;;;;;;;2.95;1.60;;;11.50;99.90;;;;;;5115703;28;20312;-68
2021/05/19 20:33:46;;;;;;;3.30;1.60;;;11.40;99.90;;;;;;5114412;28;20019;-67
2021/05/19 20:36:11;;;;;;;2.63;1.27;;;11.40;99.90;;;;;;5117032;28;20055;-66
2021/05/19 20:38:37;;;;;;;2.07;1.13;;;11.40;99.90;;;;;;5116315;28;20414;-66
2021/05/19 20:41:03;;;;;;;4.90;1.42;;;11.40;99.90;;;;;;5115295;28;20028;-67
2021/05/19 20:43:28;;;;;;;2.78;1.20;;;11.40;99.90;;;;;;5115310;28;20032;-67
2021/05/19 20:45:54;;;;;;;2.43;1.50;;;11.40;99.90;;;;;;5115274;28;20140;-67
2021/05/19 20:48:20;;;;;;;2.15;1.20;;;11.30;99.90;;;;;;5115142;28;20027;-66
2021/05/19 20:50:45;;;;;;;2.55;1.15;;;11.30;99.90;;;;;;5113845;28;20483;-66
2021/05/19 20:53:11;;;;;;;3.70;1.33;;;11.30;99.90;;;;;;5114651;28;20160;-68
2021/05/19 20:55:37;;;;;;;1.77;1.10;;;11.30;99.90;;;;;;5115996;28;20062;-67
2021/05/19 20:58:04;;;;;;;2.60;1.08;;;11.30;99.90;;;;;;5115466;27;20018;-67
2021/05/19 21:00:31;;;;;;;4.15;1.27;;;11.30;99.90;;;;;;5115292;28;20507;-67
2021/05/19 21:02:59;;;;;;;3.10;1.58;;;11.30;99.90;;;;;;5117675;28;20024;-66
2021/05/19 21:05:26;;;;;;;3.42;1.50;;;11.30;99.90;;;;;;5115473;28;20040;-66
2021/05/19 21:07:51;;;;;;;;;;;11.20;99.90;;;;;;5115485;28;20020;-66
2021/05/19 21:10:18;;;;;;;3.40;1.35;;;11.20;99.90;;;;;;5113584;28;19907;-66
2021/05/19 21:12:43;;;;;;;1.80;1.10;;;11.20;99.90;;;;;;5115184;28;20044;-66
2021/05/19 21:15:14;;;;;;;4.65;1.50;;;11.20;99.90;;;;;;5113568;28;20130;-66
2021/05/19 21:17:40;;;;;;;2.97;1.27;;;11.20;99.90;;;;;;5113570;28;20391;-67
2021/05/19 21:20:07;;;;;;;3.45;1.27;;;11.20;99.90;;;;;;5115046;28;20032;-66
2021/05/19 21:22:32;;;;;;;2.90;1.30;;;11.20;99.90;;;;;;5113166;28;20039;-66
2021/05/19 21:24:58;;;;;;;2.60;1.33;;;11.20;99.90;;;;;;5114831;28;20034;-66
2021/05/19 21:27:24;;;;;;;3.60;2.03;;;11.30;99.90;;;;;;5113376;28;20272;-65
2021/05/19 21:29:50;;;;;;;4.00;1.60;;;11.30;99.90;;;;;;5114193;28;20031;-65
2021/05/19 21:32:16;;;;;;;3.95;2.65;;;11.20;99.90;;;;;;5114075;28;20024;-65
2021/05/19 21:34:41;;;;;;;2.50;1.20;;;11.20;99.90;;;;;;5114169;28;20020;-65
2021/05/19 21:37:08;;;;;;;3.30;1.55;;;11.20;99.90;;;;;;5114055;28;20618;-65
2021/05/19 21:39:34;;;;;;;1.95;1.30;;;11.20;99.90;;;;;;5114181;28;20043;-65
2021/05/19 21:42:00;;;;;;;6.85;1.60;;;11.20;99.90;;;;;;5114133;28;20036;-66
2021/05/19 21:44:27;;;;;;;2.87;1.63;;;11.20;99.90;;;;;;5114217;28;20488;-65
2021/05/19 21:46:53;;;;;;;3.60;1.63;;;11.20;99.90;;;;;;5113868;28;20055;-65
2021/05/19 21:49:18;;;;;;;2.72;1.70;;;11.10;99.90;;;;;;5113897;28;20113;-66
2021/05/19 21:51:44;;;;;;;2.60;1.70;;;11.10;99.90;;;;;;5112561;28;20121;-66
2021/05/19 21:54:10;;;;;;;3.40;1.80;;;11.10;99.90;;;;;;5113914;28;20024;-66
2021/05/19 21:56:35;;;;;;;3.90;1.47;;;11.00;99.90;;;;;;5114103;28;20068;-65
2021/05/19 21:59:02;;;;;;;2.38;1.20;;;11.00;99.90;;;;;;5113797;28;20099;-65
2021/05/19 22:01:28;;;;;;;2.55;1.30;;;11.00;99.90;;;;;;5112462;28;20031;-65
2021/05/19 22:03:54;;;;;;;1.75;1.30;;;11.00;99.90;;;;;;5112026;28;20026;-66
2021/05/19 22:06:20;;;;;;;;;;;11.00;99.90;;;;;;5114223;28;20026;-65
2021/05/19 22:08:46;;;;;;;3.10;1.30;;;11.10;99.90;;;;;;5114904;28;19998;-64
2021/05/19 22:11:11;;;;;;;3.28;1.48;;;11.10;99.90;;;;;;5113727;28;20028;-64
2021/05/19 22:13:39;;;;;;;2.27;1.30;;;11.10;99.90;;;;;;5113588;28;20112;-65